createdAt,value
2023-05-09T00:01:02.298Z,16.03
2023-05-09T00:03:33.607Z,14.87
2023-05-09T00:06:29.705Z,14.67
2023-05-09T00:09:08.492Z,18.17
2023-05-09T00:11:44.175Z,15.87
2023-05-09T00:14:15.222Z,14.90
2023-05-09T00:16:45.833Z,16.03
2023-05-09T00:19:16.910Z,14.73
2023-05-09T00:21:49.897Z,15.97
2023-05-09T00:24:20.053Z,16.10
2023-05-09T00:26:57.771Z,15.00
2023-05-09T00:29:36.505Z,15.67
2023-05-09T00:32:05.649Z,15.20
2023-05-09T00:34:34.152Z,15.73
2023-05-09T00:37:04.367Z,15.27
2023-05-09T00:39:40.470Z,14.30
2023-05-09T00:42:16.474Z,14.33
2023-05-09T00:44:49.146Z,13.97
2023-05-09T00:47:17.868Z,13.53
2023-05-09T00:49:47.930Z,15.47
2023-05-09T00:52:18.070Z,13.50
2023-05-09T00:54:45.924Z,12.67
2023-05-09T00:57:15.915Z,13.33
2023-05-09T00:59:45.954Z,12.37
2023-05-09T01:02:20.672Z,13.60
2023-05-09T01:04:57.129Z,13.17
2023-05-09T01:08:08.696Z,13.53
2023-05-09T01:11:04.305Z,12.73
2023-05-09T01:14:47.188Z,12.30
2023-05-09T01:17:56.363Z,13.17
2023-05-09T01:20:59.590Z,11.50
2023-05-09T01:24:08.834Z,11.77
2023-05-09T01:27:09.200Z,11.70
2023-05-09T01:29:52.548Z,12.23
2023-05-09T01:32:34.212Z,12.03
2023-05-09T01:35:06.583Z,12.13
2023-05-09T01:37:42.195Z,12.90
2023-05-09T01:40:26.640Z,13.00
2023-05-09T01:43:17.460Z,10.60
2023-05-09T01:45:45.335Z,11.50
2023-05-09T01:48:18.904Z,10.93
2023-05-09T01:50:49.304Z,10.70
2023-05-09T01:53:18.880Z,11.27
2023-05-09T01:55:49.344Z,10.70
2023-05-09T01:58:18.848Z,14.87
2023-05-09T02:00:54.358Z,18.13
2023-05-09T02:03:28.591Z,13.00
2023-05-09T02:05:58.123Z,13.50
2023-05-09T02:08:29.655Z,12.47
2023-05-09T02:10:58.171Z,11.10
2023-05-09T02:13:27.969Z,11.37
2023-05-09T02:15:57.842Z,11.50
2023-05-09T02:18:33.320Z,10.80
2023-05-09T02:21:04.240Z,9.77
2023-05-09T02:23:32.563Z,12.33
2023-05-09T02:26:03.513Z,10.23
2023-05-09T02:28:32.251Z,10.40
2023-05-09T02:31:03.559Z,10.83
2023-05-09T02:33:32.004Z,11.33
2023-05-09T02:36:03.356Z,10.70
2023-05-09T02:38:42.423Z,12.30
2023-05-09T02:41:20.680Z,9.70
2023-05-09T02:43:51.879Z,10.37
2023-05-09T02:46:28.908Z,12.93
2023-05-09T02:48:59.819Z,10.97
2023-05-09T02:51:29.561Z,10.70
2023-05-09T02:53:58.505Z,9.83
2023-05-09T02:56:28.876Z,10.83
2023-05-09T02:59:04.826Z,10.90
2023-05-09T03:01:35.309Z,11.73
2023-05-09T03:04:09.908Z,10.60
2023-05-09T03:06:38.874Z,10.10
2023-05-09T03:09:07.694Z,10.83
2023-05-09T03:11:45.550Z,11.13
2023-05-09T03:14:17.103Z,13.40
2023-05-09T03:16:47.749Z,10.20
2023-05-09T03:19:17.249Z,10.30
2023-05-09T03:21:44.976Z,11.43
2023-05-09T03:24:14.845Z,11.10
2023-05-09T03:26:51.999Z,10.53
2023-05-09T03:29:21.742Z,10.03
2023-05-09T03:31:59.006Z,10.70
2023-05-09T03:34:30.386Z,10.13
2023-05-09T03:37:07.011Z,11.67
2023-05-09T03:39:36.902Z,11.10
2023-05-09T03:42:06.975Z,11.40
2023-05-09T03:44:45.693Z,10.63
2023-05-09T03:47:19.397Z,10.17
2023-05-09T03:49:49.829Z,10.97
2023-05-09T03:52:19.398Z,10.63
2023-05-09T03:54:48.256Z,11.67
2023-05-09T03:57:25.211Z,10.40
2023-05-09T03:59:56.965Z,10.37
2023-05-09T04:02:25.292Z,10.37
2023-05-09T04:04:55.599Z,10.73
2023-05-09T04:07:27.738Z,10.43
2023-05-09T04:09:58.360Z,10.30
2023-05-09T04:12:26.858Z,9.33
2023-05-09T04:14:56.463Z,10.10
2023-05-09T04:17:26.764Z,12.30
2023-05-09T04:20:05.216Z,10.20
2023-05-09T04:22:41.393Z,16.10
2023-05-09T04:25:17.455Z,10.30
2023-05-09T04:27:49.477Z,11.20
2023-05-09T04:30:21.502Z,9.90
2023-05-09T04:32:58.434Z,9.53
2023-05-09T04:35:35.625Z,8.77
2023-05-09T04:38:06.059Z,10.27
2023-05-09T04:40:41.936Z,8.93
2023-05-09T04:43:11.150Z,8.50
2023-05-09T04:45:44.869Z,10.40
2023-05-09T04:48:14.672Z,9.07
2023-05-09T04:50:45.942Z,8.30
2023-05-09T04:53:16.443Z,9.47
2023-05-09T04:55:52.462Z,10.13
2023-05-09T04:58:29.547Z,15.80
2023-05-09T05:00:59.957Z,8.97
2023-05-09T05:03:28.866Z,8.40
2023-05-09T05:05:59.567Z,8.50
2023-05-09T05:08:31.284Z,8.80
2023-05-09T05:11:01.684Z,9.40
2023-05-09T05:13:31.591Z,7.97
2023-05-09T05:16:02.913Z,7.20
2023-05-09T05:18:31.381Z,9.77
2023-05-09T05:20:59.856Z,8.13
2023-05-09T05:23:29.882Z,8.63
2023-05-09T05:25:57.183Z,7.97
2023-05-09T05:28:29.210Z,8.73
2023-05-09T05:30:56.817Z,10.33
2023-05-09T05:33:26.466Z,7.63
2023-05-09T05:35:56.767Z,7.77
2023-05-09T05:38:25.331Z,9.33
2023-05-09T05:41:02.967Z,7.47
2023-05-09T05:43:39.609Z,8.63
2023-05-09T05:46:08.997Z,8.10
2023-05-09T05:48:47.552Z,10.10
2023-05-09T05:51:17.557Z,7.20
2023-05-09T05:53:57.415Z,9.83
2023-05-09T05:56:26.461Z,7.63
2023-05-09T05:59:03.849Z,8.57
2023-05-09T06:01:33.900Z,7.93
2023-05-09T06:04:10.217Z,7.57
2023-05-09T06:06:40.944Z,7.37
2023-05-09T06:09:09.588Z,8.07
2023-05-09T06:11:39.360Z,6.97
2023-05-09T06:14:11.109Z,7.33
2023-05-09T06:16:42.877Z,8.60
2023-05-09T06:19:15.489Z,7.80
2023-05-09T06:21:45.689Z,9.73
2023-05-09T06:24:34.474Z,7.40
2023-05-09T06:27:04.513Z,7.37
2023-05-09T06:29:35.597Z,10.00
2023-05-09T06:32:09.755Z,6.77
2023-05-09T06:34:40.260Z,7.10
2023-05-09T06:37:12.429Z,7.70
2023-05-09T06:39:42.573Z,6.57
2023-05-09T06:42:12.653Z,6.87
2023-05-09T06:44:49.768Z,6.50
2023-05-09T06:47:20.791Z,8.50
2023-05-09T06:49:55.888Z,6.50
2023-05-09T06:52:28.667Z,6.67
2023-05-09T06:54:58.367Z,6.83
2023-05-09T06:57:29.256Z,7.17
2023-05-09T06:59:58.641Z,6.87
2023-05-09T07:02:30.437Z,6.80
2023-05-09T07:05:00.322Z,7.53
2023-05-09T07:07:31.889Z,7.03
2023-05-09T07:10:11.257Z,6.87
2023-05-09T07:12:44.083Z,6.93
2023-05-09T07:15:22.701Z,7.53
2023-05-09T07:18:01.012Z,6.93
2023-05-09T07:20:31.286Z,6.23
2023-05-09T07:23:01.473Z,6.90
2023-05-09T07:25:38.929Z,8.37
2023-05-09T07:28:14.597Z,7.10
2023-05-09T07:30:52.120Z,8.27
2023-05-09T07:33:22.594Z,6.53
2023-05-09T07:35:53.306Z,6.73
2023-05-09T07:38:23.524Z,6.57
2023-05-09T07:40:51.616Z,6.73
2023-05-09T07:43:19.953Z,6.97
2023-05-09T07:45:48.980Z,7.13
2023-05-09T07:48:20.371Z,6.83
2023-05-09T07:50:49.460Z,6.90
2023-05-09T07:53:18.264Z,8.50
2023-05-09T07:55:49.812Z,7.07
2023-05-09T07:58:26.932Z,7.07
2023-05-09T08:01:01.390Z,7.87
2023-05-09T08:03:31.092Z,7.00
2023-05-09T08:06:01.599Z,7.03
2023-05-09T08:08:32.394Z,7.37
2023-05-09T08:11:01.455Z,6.43
2023-05-09T08:13:30.679Z,7.23
2023-05-09T08:16:06.171Z,7.37
2023-05-09T08:18:38.549Z,7.47
2023-05-09T08:21:14.743Z,6.67
2023-05-09T08:23:45.158Z,6.30
2023-05-09T08:26:15.705Z,7.13
2023-05-09T08:28:44.095Z,9.30
2023-05-09T08:31:12.913Z,7.03
2023-05-09T08:33:49.121Z,7.50
2023-05-09T08:36:26.415Z,7.60
2023-05-09T08:38:58.476Z,7.00
2023-05-09T08:41:34.969Z,7.20
2023-05-09T08:44:05.944Z,6.90
2023-05-09T08:46:48.773Z,6.90
2023-05-09T08:49:25.015Z,8.70
2023-05-09T08:51:57.298Z,7.27
2023-05-09T08:54:28.392Z,9.87
2023-05-09T08:56:58.231Z,8.53
2023-05-09T08:59:29.501Z,7.57
2023-05-09T09:01:59.102Z,7.47
2023-05-09T09:04:48.552Z,10.50
2023-05-09T09:07:18.764Z,7.60
2023-05-09T09:09:55.568Z,7.87
2023-05-09T09:12:33.094Z,9.50
2023-05-09T09:15:08.128Z,7.63
2023-05-09T09:17:47.071Z,8.30
2023-05-09T09:20:30.188Z,8.03
2023-05-09T09:23:08.480Z,7.93
2023-05-09T09:25:41.412Z,7.83
2023-05-09T09:28:17.961Z,7.07
2023-05-09T09:30:49.998Z,7.00
2023-05-09T09:33:28.498Z,7.50
2023-05-09T09:36:01.341Z,9.27
2023-05-09T09:38:44.374Z,7.67
2023-05-09T09:41:14.968Z,9.57
2023-05-09T09:43:57.484Z,7.80
2023-05-09T11:15:13.315Z,7.80
2023-05-09T11:17:48.966Z,9.50
2023-05-09T11:20:19.021Z,7.73
2023-05-09T11:22:49.884Z,8.93
2023-05-09T11:25:31.181Z,8.70
2023-05-09T11:28:09.359Z,8.70
2023-05-09T11:30:50.509Z,8.67
2023-05-09T11:33:42.556Z,8.60
2023-05-09T11:36:37.399Z,8.23
2023-05-09T11:39:21.221Z,8.63
2023-05-09T11:41:55.066Z,9.27
2023-05-09T11:44:24.695Z,9.20
2023-05-09T11:46:55.023Z,9.83
2023-05-09T11:49:23.973Z,8.87
2023-05-09T11:51:52.156Z,8.83
2023-05-09T11:54:28.369Z,8.67
2023-05-09T11:57:00.360Z,8.30
2023-05-09T11:59:39.784Z,9.40
2023-05-09T12:02:15.611Z,8.90
2023-05-09T12:04:48.632Z,9.20
2023-05-09T12:07:21.926Z,8.30
2023-05-09T12:09:53.701Z,9.53
2023-05-09T12:12:24.772Z,10.20
2023-05-09T12:15:01.024Z,9.33
2023-05-09T12:17:38.742Z,8.20
2023-05-09T12:20:19.697Z,9.00
2023-05-09T12:22:55.342Z,9.10
2023-05-09T12:25:31.523Z,9.67
2023-05-09T12:28:07.720Z,9.43
2023-05-09T12:30:38.802Z,9.47
2023-05-09T12:33:13.252Z,9.33
2023-05-09T12:35:57.057Z,9.73
2023-05-09T12:38:27.747Z,8.23
2023-05-09T12:41:22.419Z,8.27
2023-05-09T12:44:02.539Z,8.90
2023-05-09T12:46:39.307Z,9.00
2023-05-09T12:49:22.637Z,8.73
2023-05-09T12:51:56.044Z,8.68
2023-05-09T12:54:31.559Z,7.95
2023-05-09T12:57:07.115Z,7.53
2023-05-09T12:59:44.611Z,7.93
2023-05-09T13:02:21.731Z,8.10
2023-05-09T13:04:49.135Z,7.85
2023-05-09T13:07:18.470Z,7.18
2023-05-09T13:09:57.079Z,8.10
2023-05-09T13:12:48.192Z,7.40
2023-05-09T13:15:25.182Z,7.03
2023-05-09T13:18:10.840Z,6.40
2023-05-09T13:20:42.225Z,5.50
2023-05-09T13:23:13.935Z,7.13
2023-05-09T13:25:43.885Z,7.10
2023-05-09T13:28:13.596Z,6.25
2023-05-09T13:30:41.387Z,6.90
2023-05-09T13:33:24.545Z,7.20
2023-05-09T13:36:05.210Z,6.47
2023-05-09T13:38:37.281Z,8.35
2023-05-09T13:41:07.674Z,6.72
2023-05-09T13:43:38.859Z,6.50
2023-05-09T13:46:08.353Z,6.25
2023-05-09T13:48:39.026Z,5.53
2023-05-09T13:51:09.696Z,7.07
2023-05-09T13:53:39.630Z,7.05
2023-05-09T13:56:18.109Z,7.13
2023-05-09T13:58:53.006Z,6.90
2023-05-09T14:01:24.210Z,8.13
2023-05-09T14:04:02.623Z,6.70
2023-05-09T14:06:35.766Z,6.57
2023-05-09T14:09:09.849Z,6.37
2023-05-09T14:11:38.586Z,6.95
2023-05-09T14:14:13.166Z,7.77
2023-05-09T14:16:42.318Z,8.23
2023-05-09T14:19:09.765Z,6.80
2023-05-09T14:21:56.509Z,7.67
2023-05-09T14:24:27.357Z,6.13
2023-05-09T14:27:07.445Z,7.80
2023-05-09T14:29:39.166Z,5.73
2023-05-09T14:32:14.695Z,5.87
2023-05-09T14:34:44.115Z,6.80
2023-05-09T14:37:15.419Z,5.87
2023-05-09T14:39:46.539Z,5.40
2023-05-09T14:42:17.707Z,5.37
2023-05-09T14:44:55.168Z,5.17
2023-05-09T14:47:25.072Z,6.37
2023-05-09T14:49:55.328Z,4.93
2023-05-09T14:52:26.153Z,5.97
2023-05-09T14:55:07.768Z,4.90
2023-05-09T14:57:40.743Z,5.83
2023-05-09T15:00:21.457Z,6.17
2023-05-09T15:02:50.960Z,7.27
2023-05-09T15:05:27.209Z,7.17
2023-05-09T15:08:04.742Z,6.03
2023-05-09T15:10:42.626Z,8.23
2023-05-09T15:13:14.773Z,6.03
2023-05-09T15:15:53.820Z,6.10
2023-05-09T15:18:24.156Z,7.00
2023-05-09T15:20:56.321Z,8.50
2023-05-09T15:23:25.695Z,5.77
2023-05-09T15:25:55.760Z,5.57
2023-05-09T15:28:24.732Z,6.07
2023-05-09T15:30:54.019Z,5.43
2023-05-09T15:33:25.698Z,6.30
2023-05-09T15:36:03.296Z,6.13
2023-05-09T15:38:34.147Z,5.87
2023-05-09T15:41:03.299Z,7.20
2023-05-09T15:43:31.392Z,5.80
2023-05-09T15:46:08.531Z,5.37
2023-05-09T15:48:37.956Z,6.60
2023-05-09T15:51:06.633Z,7.37
2023-05-09T15:53:46.855Z,5.50
2023-05-09T15:56:18.260Z,6.50
2023-05-09T15:58:48.459Z,7.67
2023-05-09T16:01:19.533Z,6.50
2023-05-09T16:03:48.194Z,5.63
2023-05-09T16:06:17.562Z,6.37
2023-05-09T16:08:48.858Z,7.73
2023-05-09T16:11:20.422Z,6.03
2023-05-09T16:13:53.820Z,5.67
2023-05-09T16:16:22.953Z,5.00
2023-05-09T16:18:51.517Z,5.37
2023-05-09T16:21:22.958Z,6.30
2023-05-09T16:23:51.364Z,5.40
2023-05-09T16:26:19.326Z,7.30
2023-05-09T16:28:48.970Z,5.77
2023-05-09T16:31:18.699Z,5.87
2023-05-09T16:33:47.424Z,5.77
2023-05-09T16:36:19.059Z,5.53
2023-05-09T16:38:58.121Z,6.03
2023-05-09T16:41:29.683Z,5.13
2023-05-09T16:43:59.940Z,4.93
2023-05-09T16:46:39.079Z,4.77
2023-05-09T16:49:09.298Z,5.07
2023-05-09T16:51:39.114Z,5.60
2023-05-09T16:54:09.191Z,5.13
2023-05-09T16:56:47.760Z,4.33
2023-05-09T16:59:19.037Z,4.80
2023-05-09T17:01:55.510Z,4.37
2023-05-09T17:04:25.685Z,4.67
2023-05-09T17:06:54.230Z,5.13
2023-05-09T17:09:21.559Z,4.93
2023-05-09T17:11:51.409Z,5.17
2023-05-09T17:14:29.223Z,4.27
2023-05-09T17:17:00.668Z,4.57
2023-05-09T17:19:31.881Z,3.77
2023-05-09T17:22:07.300Z,4.17
2023-05-09T17:24:45.561Z,4.70
2023-05-09T17:27:16.657Z,4.40
2023-05-09T17:29:53.075Z,3.90
2023-05-09T17:32:22.601Z,4.80
2023-05-09T17:34:52.122Z,4.43
2023-05-09T17:37:20.817Z,4.07
2023-05-09T17:39:57.900Z,4.53
2023-05-09T17:42:28.038Z,3.83
2023-05-09T17:44:58.485Z,3.83
2023-05-09T17:47:29.513Z,4.83
2023-05-09T17:50:06.326Z,4.87
2023-05-09T17:52:34.970Z,3.47
2023-05-09T17:55:07.045Z,3.87
2023-05-09T17:57:36.218Z,3.47
2023-05-09T18:00:09.736Z,4.27
2023-05-09T18:02:40.835Z,4.20
2023-05-09T18:05:11.775Z,3.37
2023-05-09T18:07:41.578Z,4.10
2023-05-09T18:10:10.381Z,5.10
2023-05-09T18:12:40.237Z,6.60
2023-05-09T18:15:12.008Z,6.03
2023-05-09T18:17:41.238Z,8.00
2023-05-09T18:20:12.894Z,5.80
2023-05-09T18:22:43.265Z,6.33
2023-05-09T18:25:11.733Z,7.43
2023-05-09T18:27:41.533Z,3.50
2023-05-09T18:30:10.564Z,4.50
2023-05-09T18:32:42.394Z,4.47
2023-05-09T18:35:13.038Z,4.23
2023-05-09T18:37:50.236Z,3.53
2023-05-09T18:40:21.283Z,3.80
2023-05-09T18:42:50.123Z,3.33
2023-05-09T18:45:19.033Z,3.37
2023-05-09T18:47:47.313Z,4.30
2023-05-09T18:50:25.521Z,4.70
2023-05-09T18:52:56.054Z,3.53
2023-05-09T18:55:26.222Z,4.27
2023-05-09T18:57:55.163Z,5.80
2023-05-09T19:00:26.409Z,4.50
2023-05-09T19:02:56.148Z,4.57
2023-05-09T19:05:28.418Z,5.93
2023-05-09T19:07:55.901Z,5.00
2023-05-09T19:10:28.037Z,4.60
2023-05-09T19:12:57.811Z,7.00
2023-05-09T19:15:25.817Z,6.23
2023-05-09T19:17:53.250Z,5.40
2023-05-09T19:20:22.457Z,5.70
2023-05-09T19:22:54.025Z,6.10
2023-05-09T19:25:30.357Z,6.57
2023-05-09T19:27:59.111Z,6.00
2023-05-09T19:30:29.041Z,6.90
2023-05-09T19:33:06.128Z,9.07
2023-05-09T19:35:37.214Z,6.93
2023-05-09T19:38:05.813Z,8.87
2023-05-09T19:40:36.234Z,6.13
2023-05-09T19:43:04.886Z,5.20
2023-05-09T19:45:34.374Z,6.40
2023-05-09T19:48:12.174Z,4.90
2023-05-09T19:50:40.570Z,4.53
2023-05-09T19:53:09.532Z,14.53
2023-05-09T19:55:38.428Z,8.07
2023-05-09T19:58:06.779Z,8.23
2023-05-09T20:00:41.439Z,6.00
2023-05-09T20:03:10.201Z,5.33
2023-05-09T20:05:48.021Z,5.40
2023-05-09T20:08:24.882Z,6.97
2023-05-09T20:10:55.180Z,5.47
2023-05-09T20:13:24.052Z,5.30
2023-05-09T20:15:55.531Z,5.73
2023-05-09T20:18:27.586Z,5.43
2023-05-09T20:20:56.024Z,5.50
2023-05-09T20:23:24.957Z,7.33
2023-05-09T20:26:06.640Z,7.10
2023-05-09T20:28:38.746Z,6.53
2023-05-09T20:31:09.064Z,5.73
2023-05-09T20:33:43.530Z,6.10
2023-05-09T20:36:20.488Z,5.13
2023-05-09T20:38:49.740Z,5.67
2023-05-09T20:41:28.353Z,5.47
2023-05-09T20:44:08.186Z,4.80
2023-05-09T20:46:38.299Z,4.70
2023-05-09T20:49:08.983Z,5.03
2023-05-09T20:51:38.272Z,4.70
2023-05-09T20:54:09.946Z,4.73
2023-05-09T20:56:39.473Z,4.83
2023-05-09T20:59:08.053Z,5.60
2023-05-09T21:01:41.123Z,4.33
2023-05-09T21:04:11.262Z,6.20
2023-05-09T21:06:40.087Z,7.57
2023-05-09T21:09:11.993Z,4.27
2023-05-09T21:11:42.951Z,4.73
2023-05-09T21:14:12.712Z,4.93
2023-05-09T21:16:45.397Z,4.97
2023-05-09T21:19:16.105Z,4.93
2023-05-09T21:21:55.820Z,4.53
2023-05-09T21:24:24.242Z,5.00
2023-05-09T21:26:53.438Z,4.67
2023-05-09T21:29:22.444Z,4.93
2023-05-09T21:31:54.584Z,7.20
2023-05-09T21:34:22.663Z,6.63
2023-05-09T21:36:53.215Z,5.97
2023-05-09T21:39:23.029Z,5.63
2023-05-09T21:42:02.064Z,5.17
2023-05-09T21:44:38.709Z,5.93
2023-05-09T21:47:08.669Z,4.73
2023-05-09T21:49:39.705Z,5.27
2023-05-09T21:52:07.811Z,4.77
2023-05-09T21:54:38.047Z,6.83
2023-05-09T21:57:10.618Z,5.93
2023-05-09T21:59:46.335Z,5.20
2023-05-09T22:02:16.370Z,5.33
2023-05-09T22:04:45.625Z,4.70
2023-05-09T22:07:21.419Z,5.17
2023-05-09T22:09:51.930Z,4.90
2023-05-09T22:12:29.877Z,5.50
2023-05-09T22:17:43.389Z,5.67
2023-05-09T22:20:13.752Z,6.17
2023-05-09T22:22:53.509Z,5.30
2023-05-09T22:25:23.827Z,6.17
2023-05-09T22:27:55.455Z,5.80
2023-05-09T22:30:29.369Z,5.80
2023-05-09T22:33:07.793Z,6.07
2023-05-09T22:35:38.153Z,6.23
2023-05-09T22:38:06.492Z,5.40
2023-05-09T22:40:37.308Z,5.10
2023-05-09T22:43:08.662Z,5.27
2023-05-09T22:45:46.185Z,5.53
2023-05-09T22:48:15.456Z,6.00
2023-05-09T22:50:45.087Z,5.77
2023-05-09T22:53:25.155Z,6.33
2023-05-09T22:55:55.746Z,6.67
2023-05-09T22:58:27.855Z,6.43
2023-05-09T23:00:57.290Z,5.30
2023-05-09T23:03:34.452Z,5.67
2023-05-09T23:06:09.273Z,5.70
2023-05-09T23:08:39.834Z,6.10
2023-05-09T23:11:08.066Z,5.97
2023-05-09T23:13:38.603Z,5.80
2023-05-09T23:16:15.094Z,6.43
2023-05-09T23:18:54.825Z,6.50
2023-05-09T23:21:21.990Z,7.57
2023-05-09T23:23:51.609Z,6.10
2023-05-09T23:26:24.782Z,6.07
2023-05-09T23:28:55.869Z,5.63
2023-05-09T23:31:26.203Z,6.47
2023-05-09T23:33:55.760Z,5.83
2023-05-09T23:36:28.344Z,7.47
2023-05-09T23:38:56.037Z,6.20
2023-05-09T23:41:27.873Z,5.37
2023-05-09T23:44:05.037Z,7.27
2023-05-09T23:46:41.098Z,6.43
2023-05-09T23:49:11.021Z,5.63
2023-05-09T23:51:41.413Z,5.93
2023-05-09T23:54:09.858Z,7.00
2023-05-09T23:56:40.999Z,7.17
2023-05-09T23:59:10.540Z,6.77
